Time;durP1;ratioP1;P1;durP2;ratioP2;P2;SDS_P1;SDS_P2;PMS_P1;PMS_P2;Temp;Humidity;BMP_temperature;BMP_pressure;BME280_temperature;BME280_humidity;BME280_pressure;Samples;Min_cycle;Max_cycle;Signal;HPM_P1;HPM_P2
2022/11/20 00:00:32;;;;;;;;;;;;;;;;;;5037007;28;19924;-78
2022/11/20 00:02:58;;;;;;;;;;;;;;;;;;5038970;28;19921;-78
2022/11/20 00:05:24;;;;;;;;;;;;;;;;;;5036008;28;21311;-78
2022/11/20 00:07:50;;;;;;;;;;;;;;;;;;5036936;28;19925;-78
2022/11/20 00:10:16;;;;;;;;;;;;;;;;;;5040115;28;19984;-78
2022/11/20 00:12:42;;;;;;;;;;;;;;;;;;5039348;28;19960;-79
2022/11/20 00:15:08;;;;;;;;;;;;;;;;;;5038247;28;20012;-79
2022/11/20 00:17:33;;;;;;;;;;;;;;;;;;5038759;28;20024;-78
2022/11/20 00:19:59;;;;;;;;;;;;;;;;;;5044798;28;19932;-78
2022/11/20 00:22:25;;;;;;;;;;;;;;;;;;5053869;28;19921;-78
2022/11/20 00:24:51;;;;;;;;;;;;;;;;;;5034649;28;19928;-78
2022/11/20 00:27:17;;;;;;;;;;;;;;;;;;5032116;28;19948;-78
2022/11/20 00:29:43;;;;;;;;;;;;;;;;;;5041799;28;19947;-78
2022/11/20 00:32:09;;;;;;;;;;;;;;;;;;5039260;28;19975;-79
2022/11/20 00:34:35;;;;;;;;;;;;;;;;;;5041281;28;19928;-78
2022/11/20 00:37:01;;;;;;;;;;;;;;;;;;5045836;28;20277;-78
2022/11/20 00:39:27;;;;;;;;;;;;;;;;;;5044109;28;19921;-78
2022/11/20 00:41:53;;;;;;;;;;;;;;;;;;5042516;28;19928;-78
2022/11/20 00:44:19;;;;;;;;;;;;;;;;;;5052212;28;19921;-79
2022/11/20 00:46:45;;;;;;;;;;;;;;;;;;5033614;28;19921;-78
2022/11/20 00:49:11;;;;;;;;;;;;;;;;;;5043118;28;19921;-78
2022/11/20 00:51:36;;;;;;;;;;;;;;;;;;5039855;28;19921;-78
2022/11/20 00:54:02;;;;;;;;;;;;;;;;;;5040562;28;19928;-78
2022/11/20 00:56:28;;;;;;;;;;;;;;;;;;5041395;28;19927;-79
2022/11/20 00:58:54;;;;;;;;;;;;;;;;;;5041481;28;19921;-79
2022/11/20 01:01:20;;;;;;;;;;;;;;;;;;5040936;28;19929;-78
2022/11/20 01:03:46;;;;;;;;;;;;;;;;;;5037770;28;19932;-78
2022/11/20 01:06:12;;;;;;;;;;;;;;;;;;5036404;28;19928;-77
2022/11/20 01:08:38;;;;;;;;;;;;;;;;;;5036064;28;20278;-77
2022/11/20 01:11:04;;;;;;;;;;;;;;;;;;5036700;28;19921;-77
2022/11/20 01:13:39;;;;;;;;;;;;;;;;;;5037264;28;19925;-77
2022/11/20 01:16:05;;;;;;;;;;;;;;;;;;5037720;28;20259;-78
2022/11/20 01:18:31;;;;;;;;;;;;;;;;;;5036514;28;19921;-78
2022/11/20 01:20:57;;;;;;;;;;;;;;;;;;5036345;28;19972;-78
2022/11/20 01:23:23;;;;;;;;;;;;;;;;;;5038977;28;19984;-79
2022/11/20 01:25:49;;;;;;;;;;;;;;;;;;5038091;28;19921;-79
2022/11/20 01:28:15;;;;;;;;;;;;;;;;;;5038561;28;19925;-78
2022/11/20 01:30:41;;;;;;;;;;;;;;;;;;5018642;28;19921;-80
2022/11/20 01:33:06;;;;;;;;;;;;;;;;;;5032079;28;20741;-79
2022/11/20 01:35:32;;;;;;;;;;;;;;;;;;5040550;28;19921;-79
2022/11/20 01:37:58;;;;;;;;;;;;;;;;;;5039277;28;20038;-79
2022/11/20 01:40:24;;;;;;;;;;;;;;;;;;5036521;28;19921;-78
2022/11/20 01:45:35;;;;;;;;;;;;;;;;;;5036912;28;20373;-78
2022/11/20 01:48:01;;;;;;;;;;;;;;;;;;5036632;28;19924;-77
2022/11/20 01:50:28;;;;;;;;;;;;;;;;;;5036274;28;19921;-77
2022/11/20 01:52:54;;;;;;;;;;;;;;;;;;5036320;28;20405;-78
2022/11/20 01:55:20;;;;;;;;;;;;;;;;;;5035182;28;19925;-78
2022/11/20 01:57:46;;;;;;;;;;;;;;;;;;5037728;28;19968;-78
2022/11/20 02:00:12;;;;;;;;;;;;;;;;;;5038675;28;19932;-78
2022/11/20 02:02:38;;;;;;;;;;;;;;;;;;5036173;28;19921;-78
2022/11/20 02:05:04;;;;;;;;;;;;;;;;;;5033957;28;20386;-78
2022/11/20 02:07:29;;;;;;;;;;;;;;;;;;5035893;28;20003;-78
2022/11/20 02:09:55;;;;;;;;;;;;;;;;;;5036814;28;20433;-78
2022/11/20 02:15:06;;;;;;;;;;;;;;;;;;5037047;28;19921;-78
2022/11/20 02:17:32;;;;;;;;;;;;;;;;;;5036965;28;19921;-78
2022/11/20 02:19:58;;;;;;;;;;;;;;;;;;5035626;28;19932;-78
2022/11/20 02:22:23;;;;;;;;;;;;;;;;;;5035332;28;19967;-79
2022/11/20 02:24:49;;;;;;;;;;;;;;;;;;5036035;28;20027;-78
2022/11/20 02:27:15;;;;;;;;;;;;;;;;;;5036000;28;20262;-78
2022/11/20 02:29:41;;;;;;;;;;;;;;;;;;5036086;28;19927;-78
2022/11/20 02:32:07;;;;;;;;;;;;;;;;;;5035138;28;19927;-78
2022/11/20 02:34:33;;;;;;;;;;;;;;;;;;5022987;28;20297;-78
2022/11/20 02:36:59;;;;;;;;;;;;;;;;;;5015592;28;20381;-78
2022/11/20 02:39:25;;;;;;;;;;;;;;;;;;5015702;28;19927;-78
2022/11/20 02:41:51;;;;;;;;;;;;;;;;;;5014556;28;19921;-79
2022/11/20 02:44:17;;;;;;;;;;;;;;;;;;5026182;28;20367;-77
2022/11/20 02:46:43;;;;;;;;;;;;;;;;;;5047721;28;19946;-77
2022/11/20 02:49:09;;;;;;;;;;;;;;;;;;5033936;28;19921;-77
2022/11/20 02:51:35;;;;;;;;;;;;;;;;;;5029451;28;19921;-78
2022/11/20 02:54:01;;;;;;;;;;;;;;;;;;5014591;28;20036;-79
2022/11/20 02:56:26;;;;;;;;;;;;;;;;;;5019379;28;19961;-78
2022/11/20 02:58:52;;;;;;;;;;;;;;;;;;5034730;28;19921;-78
2022/11/20 03:01:19;;;;;;;;;;;;;;;;;;5044002;28;19952;-77
2022/11/20 03:03:45;;;;;;;;;;;;;;;;;;5041560;28;19921;-77
2022/11/20 03:06:11;;;;;;;;;;;;;;;;;;5031903;28;20027;-77
2022/11/20 03:08:37;;;;;;;;;;;;;;;;;;5035887;28;19924;-77
2022/11/20 03:11:03;;;;;;;;;;;;;;;;;;5034940;28;19976;-77
2022/11/20 03:13:29;;;;;;;;;;;;;;;;;;5036190;28;20411;-77
2022/11/20 03:15:54;;;;;;;;;;;;;;;;;;5035357;28;19928;-78
2022/11/20 03:18:21;;;;;;;;;;;;;;;;;;5035497;28;19924;-78
2022/11/20 03:20:47;;;;;;;;;;;;;;;;;;5035381;28;19921;-78
2022/11/20 03:23:12;;;;;;;;;;;;;;;;;;5035058;28;19921;-78
2022/11/20 03:25:38;;;;;;;;;;;;;;;;;;5034701;28;19928;-78
2022/11/20 03:28:04;;;;;;;;;;;;;;;;;;5034675;28;19925;-78
2022/11/20 03:30:30;;;;;;;;;;;;;;;;;;5034469;28;19925;-78
2022/11/20 03:32:56;;;;;;;;;;;;;;;;;;5034391;28;19928;-78
2022/11/20 03:35:22;;;;;;;;;;;;;;;;;;5034259;28;20326;-78
2022/11/20 03:37:48;;;;;;;;;;;;;;;;;;5034705;28;19928;-79
2022/11/20 03:40:14;;;;;;;;;;;;;;;;;;5034799;28;19932;-78
2022/11/20 03:42:46;;;;;;;;;;;;;;;;;;5039772;28;20401;-78
2022/11/20 03:45:12;;;;;;;;;;;;;;;;;;5041894;28;19947;-78
2022/11/20 03:47:38;;;;;;;;;;;;;;;;;;5043665;28;20393;-77
2022/11/20 03:50:03;;;;;;;;;;;;;;;;;;5039090;28;19921;-78
2022/11/20 03:52:29;;;;;;;;;;;;;;;;;;5034539;28;19932;-79
2022/11/20 03:54:55;;;;;;;;;;;;;;;;;;5037525;28;19921;-78
2022/11/20 03:57:21;;;;;;;;;;;;;;;;;;5044958;28;19928;-78
2022/11/20 03:59:47;;;;;;;;;;;;;;;;;;5042215;28;19921;-78
2022/11/20 04:02:13;;;;;;;;;;;;;;;;;;5041269;28;19928;-78
2022/11/20 04:04:39;;;;;;;;;;;;;;;;;;5038997;28;19952;-78
2022/11/20 04:07:05;;;;;;;;;;;;;;;;;;5037134;28;20030;-78
2022/11/20 04:09:31;;;;;;;;;;;;;;;;;;5036982;28;20012;-77
2022/11/20 04:11:57;;;;;;;;;;;;;;;;;;5038067;28;19928;-77
2022/11/20 04:14:23;;;;;;;;;;;;;;;;;;5038512;28;19944;-78
2022/11/20 04:16:48;;;;;;;;;;;;;;;;;;5038376;28;20302;-78
2022/11/20 04:19:14;;;;;;;;;;;;;;;;;;5038524;28;20010;-78
2022/11/20 04:21:40;;;;;;;;;;;;;;;;;;5038322;28;19924;-78
2022/11/20 04:24:06;;;;;;;;;;;;;;;;;;5038013;28;19921;-78
2022/11/20 04:26:32;;;;;;;;;;;;;;;;;;5037804;28;19921;-78
2022/11/20 04:28:58;;;;;;;;;;;;;;;;;;5037792;28;19994;-78
2022/11/20 04:31:24;;;;;;;;;;;;;;;;;;5037767;28;19921;-78
2022/11/20 04:33:50;;;;;;;;;;;;;;;;;;5037321;28;20271;-78
2022/11/20 04:36:16;;;;;;;;;;;;;;;;;;5035766;28;19925;-78
2022/11/20 04:38:42;;;;;;;;;;;;;;;;;;5037731;28;19928;-78
2022/11/20 04:41:08;;;;;;;;;;;;;;;;;;5037414;28;20459;-78
2022/11/20 04:43:34;;;;;;;;;;;;;;;;;;5037213;28;19921;-78
2022/11/20 04:45:59;;;;;;;;;;;;;;;;;;5036303;28;19921;-78
2022/11/20 04:48:25;;;;;;;;;;;;;;;;;;5036999;28;19921;-78
2022/11/20 04:50:51;;;;;;;;;;;;;;;;;;5035238;28;20008;-78
2022/11/20 04:53:17;;;;;;;;;;;;;;;;;;5036937;28;19921;-78
2022/11/20 04:55:43;;;;;;;;;;;;;;;;;;5035598;28;19921;-78
2022/11/20 04:58:09;;;;;;;;;;;;;;;;;;5018938;28;19928;-78
2022/11/20 05:00:35;;;;;;;;;;;;;;;;;;5032979;28;20306;-78
2022/11/20 05:03:01;;;;;;;;;;;;;;;;;;5037096;28;19921;-79
2022/11/20 05:05:27;;;;;;;;;;;;;;;;;;5036775;28;19921;-78
2022/11/20 05:07:53;;;;;;;;;;;;;;;;;;5035792;28;19925;-78
2022/11/20 05:10:18;;;;;;;;;;;;;;;;;;5035878;28;20278;-78
2022/11/20 05:12:44;;;;;;;;;;;;;;;;;;5036515;28;19928;-78
2022/11/20 05:15:10;;;;;;;;;;;;;;;;;;5036144;28;19932;-77
2022/11/20 05:17:36;;;;;;;;;;;;;;;;;;5036711;28;20279;-77
2022/11/20 05:20:02;;;;;;;;;;;;;;;;;;5036382;28;19921;-77
2022/11/20 05:22:28;;;;;;;;;;;;;;;;;;5036294;28;19921;-77
2022/11/20 05:24:54;;;;;;;;;;;;;;;;;;5035324;28;19924;-78
2022/11/20 05:27:20;;;;;;;;;;;;;;;;;;5036491;28;19932;-78
2022/11/20 05:29:46;;;;;;;;;;;;;;;;;;5017576;28;19921;-78
2022/11/20 05:32:12;;;;;;;;;;;;;;;;;;5015146;28;19967;-78
2022/11/20 05:34:38;;;;;;;;;;;;;;;;;;5036038;28;20268;-78
2022/11/20 05:37:03;;;;;;;;;;;;;;;;;;5036683;28;19925;-78
2022/11/20 05:39:30;;;;;;;;;;;;;;;;;;5035714;28;19921;-78
2022/11/20 05:44:48;;;;;;;;;;;;;;;;;;5037410;28;19921;-77
2022/11/20 05:47:13;;;;;;;;;;;;;;;;;;5044309;28;20354;-78
2022/11/20 05:49:39;;;;;;;;;;;;;;;;;;5040129;28;19972;-78
2022/11/20 05:52:05;;;;;;;;;;;;;;;;;;5038754;28;20003;-78
2022/11/20 05:54:31;;;;;;;;;;;;;;;;;;5035059;28;20004;-77
2022/11/20 05:56:57;;;;;;;;;;;;;;;;;;5035137;28;19921;-78
2022/11/20 05:59:23;;;;;;;;;;;;;;;;;;5036024;28;19928;-78
2022/11/20 06:01:49;;;;;;;;;;;;;;;;;;5034669;28;20295;-78
2022/11/20 06:04:15;;;;;;;;;;;;;;;;;;5036207;28;20354;-78
2022/11/20 06:06:41;;;;;;;;;;;;;;;;;;5035882;28;19968;-78
2022/11/20 06:09:07;;;;;;;;;;;;;;;;;;5027872;28;19921;-78
2022/11/20 06:11:32;;;;;;;;;;;;;;;;;;5035928;28;19920;-78
2022/11/20 06:13:58;;;;;;;;;;;;;;;;;;5036387;28;19920;-78
2022/11/20 06:16:25;;;;;;;;;;;;;;;;;;5045601;28;19955;-78
2022/11/20 06:18:51;;;;;;;;;;;;;;;;;;5038292;28;19921;-78
2022/11/20 06:21:17;;;;;;;;;;;;;;;;;;5036482;28;19975;-78
2022/11/20 06:23:43;;;;;;;;;;;;;;;;;;5036665;28;19921;-78
2022/11/20 06:26:09;;;;;;;;;;;;;;;;;;5034139;28;19921;-78
2022/11/20 06:28:35;;;;;;;;;;;;;;;;;;5016168;28;19948;-77
2022/11/20 06:31:01;;;;;;;;;;;;;;;;;;5015885;28;19925;-77
2022/11/20 06:33:27;;;;;;;;;;;;;;;;;;5029599;28;20351;-77
2022/11/20 06:35:53;;;;;;;;;;;;;;;;;;5029442;28;19989;-78
2022/11/20 06:38:18;;;;;;;;;;;;;;;;;;5033364;28;19921;-78
2022/11/20 06:40:44;;;;;;;;;;;;;;;;;;5035424;28;20382;-78
2022/11/20 06:43:10;;;;;;;;;;;;;;;;;;5050189;28;19932;-77
2022/11/20 06:45:36;;;;;;;;;;;;;;;;;;5034869;28;19921;-77
2022/11/20 06:48:02;;;;;;;;;;;;;;;;;;5034798;28;19921;-78
2022/11/20 06:50:28;;;;;;;;;;;;;;;;;;5034298;28;19947;-78
2022/11/20 06:52:54;;;;;;;;;;;;;;;;;;5033125;28;19925;-78
2022/11/20 06:55:20;;;;;;;;;;;;;;;;;;5031126;28;19967;-78
2022/11/20 06:57:46;;;;;;;;;;;;;;;;;;5035011;28;21754;-78
2022/11/20 07:00:12;;;;;;;;;;;;;;;;;;5036160;28;19921;-78
2022/11/20 07:02:38;;;;;;;;;;;;;;;;;;5034831;28;19921;-78
2022/11/20 07:05:04;;;;;;;;;;;;;;;;;;5027967;28;20359;-78
2022/11/20 07:07:30;;;;;;;;;;;;;;;;;;5024819;28;19925;-78
2022/11/20 07:09:56;;;;;;;;;;;;;;;;;;5036960;28;19921;-77
2022/11/20 07:12:22;;;;;;;;;;;;;;;;;;5053541;28;19960;-77
2022/11/20 07:14:49;;;;;;;;;;;;;;;;;;5019968;28;19971;-77
2022/11/20 07:17:15;;;;;;;;;;;;;;;;;;5031840;28;19972;-77
2022/11/20 07:19:42;;;;;;;;;;;;;;;;;;5035560;28;19971;-77
2022/11/20 07:22:08;;;;;;;;;;;;;;;;;;5036805;28;19932;-77
2022/11/20 07:24:34;;;;;;;;;;;;;;;;;;5037102;28;19921;-77
2022/11/20 07:27:00;;;;;;;;;;;;;;;;;;5031931;28;19925;-77
2022/11/20 07:29:26;;;;;;;;;;;;;;;;;;5035154;28;19921;-77
2022/11/20 07:31:52;;;;;;;;;;;;;;;;;;5036343;28;19989;-77
2022/11/20 07:34:18;;;;;;;;;;;;;;;;;;5037182;28;19928;-77
2022/11/20 07:36:44;;;;;;;;;;;;;;;;;;5037424;28;19953;-77
2022/11/20 07:39:10;;;;;;;;;;;;;;;;;;5036247;28;19921;-77
2022/11/20 07:41:36;;;;;;;;;;;;;;;;;;5032426;28;19983;-77
2022/11/20 07:44:04;;;;;;;;;;;;;;;;;;5034825;28;19925;-77
2022/11/20 07:46:30;;;;;;;;;;;;;;;;;;5037199;28;19920;-77
2022/11/20 07:48:59;;;;;;;;;;;;;;;;;;5032622;28;20438;-77
2022/11/20 07:51:25;;;;;;;;;;;;;;;;;;5000502;28;19964;-77
2022/11/20 07:53:51;;;;;;;;;;;;;;;;;;5026715;28;19976;-77
2022/11/20 07:56:17;;;;;;;;;;;;;;;;;;5033898;28;19921;-77
2022/11/20 07:58:43;;;;;;;;;;;;;;;;;;5032289;28;19966;-77
2022/11/20 08:01:09;;;;;;;;;;;;;;;;;;5033016;28;19917;-78
2022/11/20 08:03:37;;;;;;;;;;;;;;;;;;5033695;28;20411;-78
2022/11/20 08:06:03;;;;;;;;;;;;;;;;;;5025138;28;19921;-78
2022/11/20 08:08:29;;;;;;;;;;;;;;;;;;5033856;28;19927;-76
2022/11/20 08:14:11;;;;;;;;;;;;;;;;;;5025933;28;19922;-77
2022/11/20 08:16:25;;;;;;;;;;;;;;;;;;5033878;28;19932;-77
2022/11/20 08:18:51;;;;;;;;;;;;;;;;;;5034767;28;19925;-77
2022/11/20 08:21:17;;;;;;;;;;;;;;;;;;5034230;28;19975;-76
2022/11/20 08:23:43;;;;;;;;;;;;;;;;;;5034383;28;19921;-76
2022/11/20 08:26:09;;;;;;;;;;;;;;;;;;5032086;28;20345;-76
2022/11/20 08:28:35;;;;;;;;;;;;;;;;;;5034210;28;19921;-76
2022/11/20 08:31:01;;;;;;;;;;;;;;;;;;5040273;28;20412;-76
2022/11/20 08:33:27;;;;;;;;;;;;;;;;;;5038765;28;19925;-76
2022/11/20 08:35:53;;;;;;;;;;;;;;;;;;5032423;28;19921;-76
2022/11/20 08:38:19;;;;;;;;;;;;;;;;;;5035053;28;19921;-78
2022/11/20 08:41:23;;;;;;;;;;;;;;;;;;5033530;28;19921;-77
2022/11/20 08:43:31;;;;;;;;;;;;;;;;;;5043821;28;19925;-77
2022/11/20 08:45:57;;;;;;;;;;;;;;;;;;5026406;28;19921;-77
2022/11/20 08:48:23;;;;;;;;;;;;;;;;;;5044059;28;20401;-77
2022/11/20 08:50:49;;;;;;;;;;;;;;;;;;5040168;28;19921;-78
2022/11/20 08:53:14;;;;;;;;;;;;;;;;;;5039417;28;19986;-78
2022/11/20 08:55:40;;;;;;;;;;;;;;;;;;5039549;28;20328;-78
2022/11/20 08:58:06;;;;;;;;;;;;;;;;;;5038938;28;19925;-75
2022/11/20 09:00:32;;;;;;;;;;;;;;;;;;5038902;28;19928;-75
2022/11/20 09:03:00;;;;;;;;;;;;;;;;;;5037150;28;19924;-76
2022/11/20 09:05:26;;;;;;;;;;;;;;;;;;5037222;28;20004;-78
2022/11/20 09:07:52;;;;;;;;;;;;;;;;;;5037134;28;19956;-78
2022/11/20 09:10:18;;;;;;;;;;;;;;;;;;5036232;28;20408;-78
2022/11/20 09:12:44;;;;;;;;;;;;;;;;;;5034841;28;19928;-76
2022/11/20 09:15:11;;;;;;;;;;;;;;;;;;5036992;28;19925;-76
2022/11/20 09:17:37;;;;;;;;;;;;;;;;;;5031826;28;20331;-76
2022/11/20 09:20:03;;;;;;;;;;;;;;;;;;5044312;28;19957;-76
2022/11/20 09:22:29;;;;;;;;;;;;;;;;;;5029077;28;19944;-76
2022/11/20 09:24:55;;;;;;;;;;;;;;;;;;5035064;28;20311;-76
2022/11/20 09:27:22;;;;;;;;;;;;;;;;;;5035276;28;20004;-76
2022/11/20 09:29:48;;;;;;;;;;;;;;;;;;5036529;28;19925;-76
2022/11/20 09:32:14;;;;;;;;;;;;;;;;;;5036344;28;19988;-78
2022/11/20 09:34:39;;;;;;;;;;;;;;;;;;5035679;28;20015;-77
2022/11/20 09:37:05;;;;;;;;;;;;;;;;;;5035033;28;19921;-77
2022/11/20 09:39:31;;;;;;;;;;;;;;;;;;5035123;28;19928;-77
2022/11/20 09:41:57;;;;;;;;;;;;;;;;;;5034554;28;19928;-78
2022/11/20 09:44:23;;;;;;;;;;;;;;;;;;5036006;28;19976;-78
2022/11/20 09:46:49;;;;;;;;;;;;;;;;;;5036103;28;19920;-77
2022/11/20 09:49:15;;;;;;;;;;;;;;;;;;5036101;28;19921;-78
2022/11/20 09:51:41;;;;;;;;;;;;;;;;;;5030456;28;19971;-78
2022/11/20 09:54:07;;;;;;;;;;;;;;;;;;5035658;28;19944;-78
2022/11/20 09:56:33;;;;;;;;;;;;;;;;;;5033953;28;20015;-78
2022/11/20 09:58:59;;;;;;;;;;;;;;;;;;5034146;28;19931;-77
2022/11/20 10:01:25;;;;;;;;;;;;;;;;;;5018339;28;19921;-78
2022/11/20 10:03:51;;;;;;;;;;;;;;;;;;5034250;28;19925;-78
2022/11/20 10:06:17;;;;;;;;;;;;;;;;;;5036461;28;19947;-77
2022/11/20 10:08:43;;;;;;;;;;;;;;;;;;5034190;28;20039;-77
2022/11/20 10:11:09;;;;;;;;;;;;;;;;;;5036494;28;19917;-77
2022/11/20 10:13:35;;;;;;;;;;;;;;;;;;5035068;28;19928;-77
2022/11/20 10:16:01;;;;;;;;;;;;;;;;;;5035439;28;20271;-78
2022/11/20 10:18:27;;;;;;;;;;;;;;;;;;5036078;28;20294;-78
2022/11/20 10:20:54;;;;;;;;;;;;;;;;;;5031858;28;19959;-76
2022/11/20 10:23:20;;;;;;;;;;;;;;;;;;5036159;28;19921;-77
2022/11/20 10:25:46;;;;;;;;;;;;;;;;;;5034959;28;19947;-77
2022/11/20 10:28:11;;;;;;;;;;;;;;;;;;5035992;28;19976;-77
2022/11/20 10:30:37;;;;;;;;;;;;;;;;;;5035759;28;19921;-77
2022/11/20 10:33:03;;;;;;;;;;;;;;;;;;5036093;28;20008;-77
2022/11/20 10:35:29;;;;;;;;;;;;;;;;;;5017674;28;20612;-77
2022/11/20 10:37:55;;;;;;;;;;;;;;;;;;5035359;28;19987;-77
2022/11/20 10:40:21;;;;;;;;;;;;;;;;;;5035173;28;20009;-76
2022/11/20 10:42:47;;;;;;;;;;;;;;;;;;5035072;28;19921;-77
2022/11/20 10:45:13;;;;;;;;;;;;;;;;;;5033674;28;19921;-77
2022/11/20 10:47:39;;;;;;;;;;;;;;;;;;5035306;28;19927;-78
2022/11/20 10:50:05;;;;;;;;;;;;;;;;;;5034023;28;19968;-78
2022/11/20 10:52:31;;;;;;;;;;;;;;;;;;5034705;28;19968;-77
2022/11/20 10:54:57;;;;;;;;;;;;;;;;;;5035055;28;20342;-77
2022/11/20 10:57:23;;;;;;;;;;;;;;;;;;5026760;28;19921;-77
2022/11/20 10:59:49;;;;;;;;;;;;;;;;;;5025377;28;20015;-77
2022/11/20 11:02:14;;;;;;;;;;;;;;;;;;5035224;28;19924;-77
2022/11/20 11:04:40;;;;;;;;;;;;;;;;;;5050006;28;20461;-77
2022/11/20 11:07:07;;;;;;;;;;;;;;;;;;5034995;28;19921;-77
2022/11/20 11:09:33;;;;;;;;;;;;;;;;;;5034690;28;19925;-77
2022/11/20 11:11:58;;;;;;;;;;;;;;;;;;5035061;28;19928;-77
2022/11/20 11:14:24;;;;;;;;;;;;;;;;;;5022373;28;19922;-77
2022/11/20 11:16:50;;;;;;;;;;;;;;;;;;5036921;28;19928;-77
2022/11/20 11:19:16;;;;;;;;;;;;;;;;;;5035090;28;19976;-77
2022/11/20 11:21:43;;;;;;;;;;;;;;;;;;5037559;28;19967;-77
2022/11/20 11:24:09;;;;;;;;;;;;;;;;;;5045517;28;19921;-77
2022/11/20 11:26:35;;;;;;;;;;;;;;;;;;5039972;28;19921;-77
2022/11/20 11:31:41;;;;;;;;;;;;;;;;;;5135277;22;19929;-72
2022/11/20 11:34:07;;;;;;;;;;;;;;;;;;5051366;28;20015;-71
2022/11/20 11:36:33;;;;;;;;;;;;;;;;;;5050096;28;19960;-72
2022/11/20 11:38:59;;;;;;;;;;;;;;;;;;5052180;28;19928;-72
2022/11/20 11:41:25;;;;;;;;;;;;;;;;;;5038766;22;19964;-72
2022/11/20 11:46:35;;;;;;;;;;;;;;;;;;5032171;28;19987;-72
2022/11/20 11:49:01;;;;;;;;;;;;;;;;;;5034320;28;20370;-72
2022/11/20 11:51:28;;;;;;;;;;;;;;;;;;5031785;28;20285;-72
2022/11/20 11:53:54;;;;;;;;;;;;;;;;;;5033178;28;20015;-73
2022/11/20 11:56:20;;;;;;;;;;;;;;;;;;5028411;28;19976;-72
2022/11/20 11:58:46;;;;;;;;;;;;;;;;;;5033287;28;19967;-72
2022/11/20 12:01:14;;;;;;;;;;;;;;;;;;5034814;28;19975;-72
2022/11/20 12:03:41;;;;;;;;;;;;;;;;;;5027353;28;20290;-72
2022/11/20 12:06:07;;;;;;;;;;;;;;;;;;5031451;28;19928;-72
2022/11/20 12:08:33;;;;;;;;;;;;;;;;;;5032484;28;19921;-73
2022/11/20 12:10:59;;;;;;;;;;;;;;;;;;5043748;28;19921;-74
2022/11/20 12:13:25;;;;;;;;;;;;;;;;;;5032161;28;19947;-72
2022/11/20 12:15:51;;;;;;;;;;;;;;;;;;5030396;28;20003;-73
2022/11/20 12:18:17;;;;;;;;;;;;;;;;;;5035516;28;19921;-72
2022/11/20 12:20:43;;;;;;;;;;;;;;;;;;5032402;28;19921;-72
2022/11/20 12:23:09;;;;;;;;;;;;;;;;;;5035219;28;19921;-73
2022/11/20 12:25:34;;;;;;;;;;;;;;;;;;5029045;28;19948;-75
2022/11/20 12:28:00;;;;;;;;;;;;;;;;;;5032360;28;19987;-73
2022/11/20 12:30:26;;;;;;;;;;;;;;;;;;5036042;28;19921;-72
2022/11/20 12:32:52;;;;;;;;;;;;;;;;;;5035800;28;19927;-73
2022/11/20 12:35:18;;;;;;;;;;;;;;;;;;5016707;28;19921;-72
2022/11/20 12:37:44;;;;;;;;;;;;;;;;;;5034867;28;20015;-72
2022/11/20 12:40:10;;;;;;;;;;;;;;;;;;5028179;28;19921;-72
2022/11/20 12:45:25;;;;;;;;;;;;;;;;;;5005530;28;19921;-72
2022/11/20 12:47:51;;;;;;;;;;;;;;;;;;5036374;28;20008;-72
2022/11/20 12:50:17;;;;;;;;;;;;;;;;;;5036048;28;19967;-72
2022/11/20 12:52:43;;;;;;;;;;;;;;;;;;5035947;28;19921;-71
2022/11/20 12:55:09;;;;;;;;;;;;;;;;;;5034409;28;19925;-72
2022/11/20 12:57:35;;;;;;;;;;;;;;;;;;5034606;28;20309;-71
2022/11/20 13:00:01;;;;;;;;;;;;;;;;;;5034475;28;19928;-72
2022/11/20 13:02:27;;;;;;;;;;;;;;;;;;5016266;28;19929;-72
2022/11/20 13:04:53;;;;;;;;;;;;;;;;;;5036229;28;20381;-72
2022/11/20 13:07:19;;;;;;;;;;;;;;;;;;5030685;28;20008;-72
2022/11/20 13:09:45;;;;;;;;;;;;;;;;;;5033027;28;19921;-72
2022/11/20 13:12:11;;;;;;;;;;;;;;;;;;5035782;28;19928;-73
2022/11/20 13:14:37;;;;;;;;;;;;;;;;;;5033886;28;19917;-72
2022/11/20 13:17:03;;;;;;;;;;;;;;;;;;5028916;28;19971;-73
2022/11/20 13:19:29;;;;;;;;;;;;;;;;;;5034371;28;19921;-72
2022/11/20 13:21:55;;;;;;;;;;;;;;;;;;5033406;28;19928;-73
2022/11/20 13:24:27;;;;;;;;;;;;;;;;;;5034785;28;19921;-72
2022/11/20 13:26:53;;;;;;;;;;;;;;;;;;5032468;28;20423;-73
2022/11/20 13:29:19;;;;;;;;;;;;;;;;;;5030335;28;19921;-73
2022/11/20 13:31:48;;;;;;;;;;;;;;;;;;5034041;28;19948;-72
2022/11/20 13:34:14;;;;;;;;;;;;;;;;;;5032922;28;19925;-72
2022/11/20 13:36:40;;;;;;;;;;;;;;;;;;5034608;28;19928;-72
2022/11/20 13:39:06;;;;;;;;;;;;;;;;;;5036308;28;20019;-73
2022/11/20 13:41:33;;;;;;;;;;;;;;;;;;5022705;28;19921;-72
2022/11/20 13:44:00;;;;;;;;;;;;;;;;;;5033092;28;20008;-72
2022/11/20 13:46:26;;;;;;;;;;;;;;;;;;5020989;28;19929;-73
2022/11/20 13:48:53;;;;;;;;;;;;;;;;;;5029225;28;19921;-72
2022/11/20 13:51:19;;;;;;;;;;;;;;;;;;5032104;28;19966;-72
2022/11/20 13:53:45;;;;;;;;;;;;;;;;;;5033778;28;20011;-71
2022/11/20 13:56:11;;;;;;;;;;;;;;;;;;5032769;28;19928;-72
2022/11/20 13:58:37;;;;;;;;;;;;;;;;;;5030904;28;19928;-72
2022/11/20 14:01:05;;;;;;;;;;;;;;;;;;5032885;28;19928;-73
2022/11/20 14:03:31;;;;;;;;;;;;;;;;;;5031509;28;19956;-73
2022/11/20 14:06:00;;;;;;;;;;;;;;;;;;5031906;28;19982;-71
2022/11/20 14:08:26;;;;;;;;;;;;;;;;;;5035033;28;19921;-72
2022/11/20 14:10:52;;;;;;;;;;;;;;;;;;5034683;28;19948;-71
2022/11/20 14:13:18;;;;;;;;;;;;;;;;;;5032152;28;19956;-71
2022/11/20 14:15:44;;;;;;;;;;;;;;;;;;5035039;28;19947;-73
2022/11/20 14:18:10;;;;;;;;;;;;;;;;;;5034723;28;19921;-72
2022/11/20 14:20:36;;;;;;;;;;;;;;;;;;5044721;28;19928;-73
2022/11/20 14:23:03;;;;;;;;;;;;;;;;;;5025100;28;19988;-73
2022/11/20 14:25:30;;;;;;;;;;;;;;;;;;5033562;28;19980;-74
2022/11/20 14:27:56;;;;;;;;;;;;;;;;;;5034661;28;19921;-73
2022/11/20 14:30:22;;;;;;;;;;;;;;;;;;5031246;28;19961;-73
2022/11/20 14:32:48;;;;;;;;;;;;;;;;;;5034511;28;19921;-72
2022/11/20 14:35:14;;;;;;;;;;;;;;;;;;5035034;28;19947;-73
2022/11/20 14:37:40;;;;;;;;;;;;;;;;;;5034248;28;19921;-72
2022/11/20 14:40:06;;;;;;;;;;;;;;;;;;5013435;28;19925;-73
2022/11/20 14:42:32;;;;;;;;;;;;;;;;;;5030754;28;20007;-73
2022/11/20 14:45:00;;;;;;;;;;;;;;;;;;5032143;28;20008;-72
2022/11/20 14:47:26;;;;;;;;;;;;;;;;;;5034326;28;20004;-72
2022/11/20 14:49:53;;;;;;;;;;;;;;;;;;5032304;28;20415;-71
2022/11/20 14:52:18;;;;;;;;;;;;;;;;;;5021298;28;19921;-73
2022/11/20 14:54:44;;;;;;;;;;;;;;;;;;5014140;28;20336;-73
2022/11/20 14:57:10;;;;;;;;;;;;;;;;;;5032693;28;19921;-70
2022/11/20 14:59:36;;;;;;;;;;;;;;;;;;5033119;28;19967;-72
2022/11/20 15:02:02;;;;;;;;;;;;;;;;;;5021423;28;19957;-71
2022/11/20 15:04:28;;;;;;;;;;;;;;;;;;5035263;28;19928;-72
2022/11/20 15:06:54;;;;;;;;;;;;;;;;;;5032241;28;19920;-71
2022/11/20 15:09:20;;;;;;;;;;;;;;;;;;5034798;28;19921;-72
2022/11/20 15:11:46;;;;;;;;;;;;;;;;;;5040914;28;19966;-73
2022/11/20 15:14:12;;;;;;;;;;;;;;;;;;5025391;28;20022;-71
2022/11/20 15:16:38;;;;;;;;;;;;;;;;;;5031268;28;19917;-71
2022/11/20 15:19:04;;;;;;;;;;;;;;;;;;5036716;28;19921;-70
2022/11/20 15:21:30;;;;;;;;;;;;;;;;;;5030610;28;19936;-72
2022/11/20 15:23:56;;;;;;;;;;;;;;;;;;5033591;28;19933;-72
2022/11/20 15:26:22;;;;;;;;;;;;;;;;;;5014308;28;19921;-71
2022/11/20 15:28:49;;;;;;;;;;;;;;;;;;5032721;28;19978;-72
2022/11/20 15:31:18;;;;;;;;;;;;;;;;;;5026405;28;20285;-71
2022/11/20 15:33:44;;;;;;;;;;;;;;;;;;5031495;28;19925;-72
2022/11/20 15:36:10;;;;;;;;;;;;;;;;;;5030455;28;19979;-72
2022/11/20 15:38:36;;;;;;;;;;;;;;;;;;5026413;28;19960;-71
2022/11/20 15:41:02;;;;;;;;;;;;;;;;;;5032923;28;19921;-72
2022/11/20 15:43:28;;;;;;;;;;;;;;;;;;5025243;28;19921;-73
2022/11/20 15:45:54;;;;;;;;;;;;;;;;;;5029180;28;19920;-72
2022/11/20 15:48:19;;;;;;;;;;;;;;;;;;5032449;28;20051;-72
2022/11/20 15:50:46;;;;;;;;;;;;;;;;;;5027435;28;19971;-71
2022/11/20 15:53:12;;;;;;;;;;;;;;;;;;5035060;28;20377;-72
2022/11/20 15:55:38;;;;;;;;;;;;;;;;;;5025590;28;20366;-73
2022/11/20 15:58:04;;;;;;;;;;;;;;;;;;5034357;28;19929;-73
2022/11/20 16:00:30;;;;;;;;;;;;;;;;;;5032454;28;19925;-74
2022/11/20 16:02:56;;;;;;;;;;;;;;;;;;5036915;28;20008;-73
2022/11/20 16:05:23;;;;;;;;;;;;;;;;;;5033198;28;20031;-73
2022/11/20 16:07:50;;;;;;;;;;;;;;;;;;5034949;28;19921;-72
2022/11/20 16:10:16;;;;;;;;;;;;;;;;;;5033120;28;19921;-72
2022/11/20 16:15:45;;;;;;;;;;;;;;;;;;5032404;28;19921;-72
2022/11/20 16:18:11;;;;;;;;;;;;;;;;;;5034010;28;19939;-74
2022/11/20 16:20:37;;;;;;;;;;;;;;;;;;5035766;28;19921;-73
2022/11/20 16:23:06;;;;;;;;;;;;;;;;;;5034102;28;19947;-73
2022/11/20 16:25:32;;;;;;;;;;;;;;;;;;5035028;28;19921;-72
2022/11/20 16:27:58;;;;;;;;;;;;;;;;;;5032515;28;20321;-73
2022/11/20 16:30:24;;;;;;;;;;;;;;;;;;5028519;28;20016;-71
2022/11/20 16:32:52;;;;;;;;;;;;;;;;;;5030032;28;19928;-71
2022/11/20 16:35:22;;;;;;;;;;;;;;;;;;5032625;28;19983;-72
2022/11/20 16:37:48;;;;;;;;;;;;;;;;;;5037512;28;20012;-74
2022/11/20 16:40:14;;;;;;;;;;;;;;;;;;5034854;28;20019;-73
2022/11/20 16:42:40;;;;;;;;;;;;;;;;;;5034033;28;19924;-73
2022/11/20 16:45:06;;;;;;;;;;;;;;;;;;5032722;28;19928;-74
2022/11/20 16:47:41;;;;;;;;;;;;;;;;;;5035123;28;19921;-71
2022/11/20 16:50:07;;;;;;;;;;;;;;;;;;5033760;28;19921;-73
2022/11/20 16:52:32;;;;;;;;;;;;;;;;;;5032921;28;19944;-72
2022/11/20 16:54:58;;;;;;;;;;;;;;;;;;5035807;28;20483;-73
2022/11/20 16:57:24;;;;;;;;;;;;;;;;;;5035104;28;20386;-73
2022/11/20 16:59:50;;;;;;;;;;;;;;;;;;5032889;28;20329;-72